Time;durP1;ratioP1;P1;durP2;ratioP2;P2;SDS_P1;SDS_P2;PMS_P1;PMS_P2;Temp;Humidity;BMP_temperature;BMP_pressure;BME280_temperature;BME280_humidity;BME280_pressure;Samples;Min_cycle;Max_cycle;Signal;HPM_P1;HPM_P2
2021/06/11 00:00:47;;;;;;;3.25;2.90;;;;;;;13.45;72.53;100317.85;2085839;84;21102;-69
2021/06/11 00:03:48;;;;;;;58.25;7.30;;;;;;;13.48;72.91;100311.33;2095719;84;21032;-68
2021/06/11 00:06:49;;;;;;;19.45;3.20;;;;;;;13.49;72.78;100311.68;2083946;84;21030;-72
2021/06/11 00:09:51;;;;;;;39.90;5.97;;;;;;;13.44;72.90;100310.88;2089748;84;21568;-69
2021/06/11 00:12:52;;;;;;;16.60;5.30;;;;;;;13.40;73.31;100309.59;2003049;87;21061;-69
2021/06/11 00:15:53;;;;;;;16.70;6.58;;;;;;;13.32;73.31;100308.33;2010402;87;21085;-70
2021/06/11 00:18:54;;;;;;;10.53;6.00;;;;;;;13.29;73.57;100302.03;2040532;85;20997;-69
2021/06/11 00:21:55;;;;;;;6.12;5.58;;;;;;;13.19;73.33;100304.07;2006297;87;21118;-73
2021/06/11 00:24:57;;;;;;;7.62;6.83;;;;;;;13.12;73.73;100303.11;2040208;85;21080;-69
2021/06/11 00:28:00;;;;;;;8.73;6.50;;;;;;;13.08;73.73;100309.83;2039932;85;21075;-70
2021/06/11 00:31:02;;;;;;;7.62;5.87;;;;;;;13.07;73.84;100303.67;2009100;87;21494;-71
2021/06/11 00:34:03;;;;;;;10.70;5.62;;;;;;;13.07;73.77;100301.01;1968473;88;21561;-70
2021/06/11 00:37:04;;;;;;;6.50;5.67;;;;;;;13.03;73.30;100302.35;1971659;88;21025;-73
2021/06/11 00:40:09;;;;;;;10.10;6.30;;;;;;;12.94;73.37;100305.58;2001102;87;21530;-72
2021/06/11 00:43:12;;;;;;;10.03;5.47;;;;;;;12.91;73.31;100309.11;1969348;89;21720;-73
2021/06/11 00:46:13;;;;;;;6.03;5.53;;;;;;;12.83;73.27;100311.32;2001060;87;21074;-71
2021/06/11 00:49:14;;;;;;;6.17;5.58;;;;;;;12.81;73.76;100309.36;2000737;87;21104;-74
2021/06/11 00:52:16;;;;;;;5.37;4.78;;;;;;;12.82;73.83;100309.67;2002143;87;21614;-70
2021/06/11 00:55:18;;;;;;;7.05;4.60;;;;;;;12.84;73.92;100303.67;1996509;87;21119;-69
2021/06/11 00:58:19;;;;;;;5.65;4.85;;;;;;;12.85;73.75;100307.98;2011797;87;21023;-69
2021/06/11 01:01:20;;;;;;;9.03;5.25;;;;;;;12.81;73.68;100293.38;2039850;85;21068;-70
2021/06/11 01:04:21;;;;;;;10.82;5.83;;;;;;;12.81;73.71;100289.86;2007428;87;21346;-70
2021/06/11 01:07:24;;;;;;;7.65;6.95;;;;;;;12.83;73.94;100290.02;2041917;85;21410;-69
2021/06/11 01:10:27;;;;;;;7.03;5.95;;;;;;;12.83;74.12;100287.35;1978495;86;21094;-70
2021/06/11 01:13:28;;;;;;;8.60;6.80;;;;;;;12.83;74.08;100281.20;2067875;84;21041;-69
2021/06/11 01:16:30;;;;;;;9.13;8.20;;;;;;;12.86;74.22;100278.19;2063095;84;21070;-70
2021/06/11 01:19:39;;;;;;;10.15;8.98;;;;;;;12.82;73.99;100281.72;2066345;84;21530;-69
2021/06/11 01:23:27;;;;;;;8.90;6.62;;;;;;;12.78;74.05;100279.92;2066608;84;21088;-68
2021/06/11 01:26:37;;;;;;;9.25;5.83;;;;;;;12.76;73.84;100281.09;2065958;84;21518;-69
2021/06/11 01:29:39;;;;;;;8.98;6.53;;;;;;;12.73;73.78;100286.78;2064031;84;21184;-69
2021/06/11 01:32:43;;;;;;;7.55;6.55;;;;;;;12.68;73.88;100290.47;2047378;84;21078;-72
2021/06/11 01:35:54;;;;;;;9.75;8.05;;;;;;;12.65;74.10;100284.16;2065902;84;21737;-70
2021/06/11 01:39:00;;;;;;;11.85;7.62;;;;;;;12.64;74.27;100278.50;2063624;84;21034;-69
2021/06/11 01:42:02;;;;;;;7.00;5.75;;;;;;;12.63;74.20;100274.19;2064832;84;20971;-69
2021/06/11 01:45:09;;;;;;;10.48;7.87;;;;;;;12.62;74.11;100273.36;2068082;84;21018;-70
2021/06/11 01:48:13;;;;;;;10.48;7.95;;;;;;;12.65;74.23;100280.17;2071044;84;21090;-68
2021/06/11 01:51:16;;;;;;;8.03;7.22;;;;;;;12.65;74.31;100277.00;2065749;84;21513;-70
2021/06/11 01:54:18;;;;;;;8.58;6.80;;;;;;;12.67;74.15;100264.83;2066347;84;21088;-69
2021/06/11 01:57:20;;;;;;;9.08;6.92;;;;;;;12.64;73.99;100270.51;2067417;84;20999;-69
2021/06/11 02:00:22;;;;;;;6.90;6.20;;;;;;;12.63;74.10;100271.52;2068672;84;21054;-70
2021/06/11 02:03:23;;;;;;;10.65;6.42;;;;;;;12.62;74.29;100269.88;2069137;84;21058;-71
2021/06/11 02:06:25;;;;;;;11.20;7.40;;;;;;;12.61;74.40;100271.69;2065768;84;21049;-68
2021/06/11 02:09:28;;;;;;;8.33;7.03;;;;;;;12.58;74.31;100269.38;2048643;84;21093;-70
2021/06/11 02:12:29;;;;;;;8.78;7.87;;;;;;;12.61;74.41;100274.34;2042540;84;21667;-69
2021/06/11 02:15:31;;;;;;;7.60;6.90;;;;;;;12.58;74.40;100280.03;2039563;85;21075;-69
2021/06/11 02:18:34;;;;;;;7.40;6.67;;;;;;;12.58;74.29;100266.72;2034798;85;21080;-69
2021/06/11 02:21:37;;;;;;;7.50;6.90;;;;;;;12.54;74.12;100269.42;2039925;85;21212;-69
2021/06/11 02:24:39;;;;;;;10.38;6.20;;;;;;;12.49;74.31;100270.44;2035871;87;21056;-69
2021/06/11 02:27:41;;;;;;;8.85;7.95;;;;;;;12.44;74.44;100266.97;2036032;85;21122;-73
2021/06/11 02:30:44;;;;;;;8.20;7.40;;;;;;;12.43;74.75;100267.98;2038662;85;21188;-69
2021/06/11 02:33:46;;;;;;;8.30;7.50;;;;;;;12.42;74.80;100265.00;2036878;85;21033;-69
2021/06/11 02:36:47;;;;;;;7.72;6.90;;;;;;;12.44;74.79;100270.13;2038079;87;21057;-73
2021/06/11 02:39:48;;;;;;;11.03;8.05;;;;;;;12.46;74.70;100270.28;2036420;85;21603;-68
2021/06/11 02:42:55;;;;;;;10.63;8.55;;;;;;;12.43;74.56;100274.63;2038702;85;21519;-68
2021/06/11 02:46:13;;;;;;;7.60;6.90;;;;;;;12.41;74.93;100265.98;2039874;85;21572;-68
2021/06/11 02:49:28;;;;;;;7.22;6.60;;;;;;;12.33;75.11;100266.88;2038273;85;21076;-68
2021/06/11 02:52:32;;;;;;;8.55;5.58;;;;;;;12.41;75.42;100275.80;2035227;85;21029;-68
2021/06/11 02:55:37;;;;;;;6.25;5.05;;;;;;;12.45;75.14;100275.80;2035179;85;21069;-70
2021/06/11 02:58:55;;;;;;;7.37;6.60;;;;;;;12.48;75.07;100276.27;2039332;85;21087;-71
2021/06/11 03:02:08;;;;;;;13.60;6.78;;;;;;;12.46;75.04;100272.95;2038489;87;21473;-68
2021/06/11 03:05:10;;;;;;;6.10;5.50;;;;;;;12.46;75.13;100277.45;2036218;85;21552;-73
2021/06/11 03:08:18;;;;;;;8.60;7.40;;;;;;;12.48;75.12;100278.11;2038605;85;21469;-72
2021/06/11 03:11:30;;;;;;;13.62;6.72;;;;;;;12.53;75.33;100273.92;2043852;84;21084;-68
2021/06/11 03:14:32;;;;;;;8.48;7.67;;;;;;;12.62;75.44;100278.69;2066694;84;21064;-69
2021/06/11 03:17:45;;;;;;;8.18;6.87;;;;;;;12.63;75.42;100276.84;2066064;84;21713;-72
2021/06/11 03:20:48;;;;;;;9.38;6.08;;;;;;;12.73;75.56;100266.81;2064693;84;21057;-68
2021/06/11 03:24:04;;;;;;;9.98;8.28;;;;;;;12.78;75.46;100272.41;2065908;84;21102;-68
2021/06/11 03:27:10;;;;;;;9.80;7.55;;;;;;;12.86;75.53;100275.02;2068651;84;21029;-69
2021/06/11 03:30:15;;;;;;;9.08;8.18;;;;;;;12.89;75.42;100271.17;2064870;84;21000;-69
2021/06/11 03:33:28;;;;;;;10.10;8.78;;;;;;;12.93;75.47;100276.48;2067107;84;21422;-70
2021/06/11 03:36:40;;;;;;;14.47;8.30;;;;;;;12.97;75.58;100277.27;2065381;84;20994;-73
2021/06/11 03:40:04;;;;;;;11.97;8.25;;;;;;;13.07;75.55;100278.88;2063016;84;21539;-69
2021/06/11 03:43:10;;;;;;;12.20;8.68;;;;;;;13.15;75.60;100282.78;2065833;84;21112;-70
2021/06/11 03:46:17;;;;;;;9.63;8.73;;;;;;;13.23;75.75;100283.56;2068360;84;21704;-68
2021/06/11 03:49:20;;;;;;;10.82;9.70;;;;;;;13.36;75.76;100278.97;2067061;84;21061;-69
2021/06/11 03:52:32;;;;;;;15.10;10.35;;;;;;;13.49;75.75;100280.17;2068573;84;21010;-69
2021/06/11 03:55:38;;;;;;;12.25;10.40;;;;;;;13.61;75.78;100284.89;2063780;84;21534;-69
2021/06/11 03:58:42;;;;;;;13.28;9.83;;;;;;;13.74;75.92;100278.94;2066721;84;21093;-72
2021/06/11 04:01:50;;;;;;;12.58;10.08;;;;;;;13.86;75.87;100281.45;2065867;84;21638;-70
2021/06/11 04:04:51;;;;;;;13.85;10.23;;;;;;;13.99;75.87;100282.64;2069387;84;21619;-68
2021/06/11 04:07:55;;;;;;;12.40;9.23;;;;;;;14.14;75.92;100276.80;2065604;84;21089;-68
2021/06/11 04:10:57;;;;;;;12.03;10.13;;;;;;;14.27;76.01;100280.13;2066782;84;21081;-71
2021/06/11 04:14:01;;;;;;;13.78;9.30;;;;;;;14.37;75.89;100277.17;2081404;83;21068;-69
2021/06/11 04:17:08;;;;;;;13.48;10.70;;;;;;;14.51;76.04;100274.97;2081981;84;21089;-69
2021/06/11 04:20:16;;;;;;;19.32;11.45;;;;;;;14.67;76.15;100278.78;2083746;84;21167;-71
2021/06/11 04:23:19;;;;;;;15.63;11.55;;;;;;;14.77;76.15;100277.94;2084720;84;21064;-71
2021/06/11 04:26:25;;;;;;;15.90;10.98;;;;;;;14.92;76.13;100274.37;2082981;84;21021;-69
2021/06/11 04:29:30;;;;;;;14.10;12.03;;;;;;;15.01;76.09;100275.92;2083152;84;21053;-68
2021/06/11 04:32:30;;;;;;;17.32;14.05;;;;;;;15.06;76.13;100280.16;2081300;84;21166;-69
2021/06/11 04:35:35;;;;;;;16.60;13.55;;;;;;;15.18;76.26;100276.48;2086084;84;21096;-72
2021/06/11 04:38:49;;;;;;;30.52;13.75;;;;;;;15.32;76.21;100280.09;2082639;84;21065;-71
2021/06/11 04:41:50;;;;;;;26.50;13.98;;;;;;;15.43;76.08;100274.22;2089166;83;21556;-68
2021/06/11 04:44:51;;;;;;;18.42;14.38;;;;;;;15.55;76.12;100277.17;2082171;84;21053;-70
2021/06/11 04:47:52;;;;;;;19.30;14.10;;;;;;;15.65;76.02;100269.61;2081195;84;21571;-72
2021/06/11 04:50:53;;;;;;;15.50;13.88;;;;;;;15.77;75.95;100272.09;2081418;84;21140;-68
2021/06/11 04:53:58;;;;;;;17.17;14.20;;;;;;;15.89;75.94;100271.03;2082147;84;21085;-69
2021/06/11 04:57:07;;;;;;;17.67;14.70;;;;;;;16.00;75.84;100269.12;2084833;84;21109;-70
2021/06/11 05:00:09;;;;;;;22.87;13.83;;;;;;;16.23;75.87;100270.67;2078666;84;21041;-69
2021/06/11 05:03:11;;;;;;;14.40;12.95;;;;;;;16.72;75.89;100269.56;2082489;84;21104;-73
2021/06/11 05:06:12;;;;;;;19.10;13.30;;;;;;;17.06;75.44;100263.77;2082367;84;20975;-71
2021/06/11 05:09:13;;;;;;;16.87;13.32;;;;;;;17.40;74.96;100265.41;2083560;84;20981;-70
2021/06/11 05:12:18;;;;;;;16.67;13.18;;;;;;;17.77;74.59;100268.47;2080704;83;21035;-71
2021/06/11 05:15:20;;;;;;;15.08;12.95;;;;;;;18.29;74.42;100269.34;2079597;84;21038;-70
2021/06/11 05:18:30;;;;;;;17.95;13.53;;;;;;;18.77;73.75;100266.20;2075835;84;21016;-69
2021/06/11 05:21:32;;;;;;;15.80;12.73;;;;;;;19.13;73.33;100268.22;2080175;84;21073;-73
2021/06/11 05:24:33;;;;;;;16.02;12.18;;;;;;;19.67;72.82;100269.94;2079313;84;20966;-71
2021/06/11 05:27:34;;;;;;;13.38;11.68;;;;;;;20.23;72.18;100267.53;2075843;84;21104;-69
2021/06/11 05:30:35;;;;;;;14.33;11.80;;;;;;;20.82;70.97;100267.27;2077110;84;21146;-67
2021/06/11 05:33:36;;;;;;;15.25;12.45;;;;;;;21.25;69.77;100264.00;2078397;84;21124;-68
2021/06/11 05:36:38;;;;;;;14.50;11.93;;;;;;;21.56;68.94;100267.45;2078955;84;21084;-68
2021/06/11 05:39:39;;;;;;;12.80;11.50;;;;;;;21.89;68.35;100264.94;2049196;84;21060;-70
2021/06/11 05:42:40;;;;;;;15.93;11.83;;;;;;;22.21;67.41;100265.88;2078497;84;21054;-68
2021/06/11 05:45:42;;;;;;;13.20;11.10;;;;;;;22.49;66.94;100265.08;2077871;84;21042;-68
2021/06/11 05:48:43;;;;;;;12.95;11.22;;;;;;;22.87;65.93;100263.61;2083902;84;21637;-69
2021/06/11 05:51:45;;;;;;;12.30;10.88;;;;;;;22.97;65.11;100267.03;2075517;84;21013;-68
2021/06/11 05:54:46;;;;;;;12.07;10.63;;;;;;;23.35;64.50;100257.37;2084037;84;21017;-68
2021/06/11 05:57:50;;;;;;;12.70;11.33;;;;;;;23.61;63.33;100259.37;2079634;84;21072;-69
2021/06/11 06:00:51;;;;;;;11.50;10.20;;;;;;;23.73;62.70;100261.18;2077686;84;21525;-69
2021/06/11 06:03:52;;;;;;;14.23;10.05;;;;;;;23.99;62.16;100260.46;2078540;84;21002;-67
2021/06/11 06:06:53;;;;;;;11.20;9.85;;;;;;;24.21;61.30;100260.97;2075025;84;21704;-70
2021/06/11 06:09:56;;;;;;;16.93;10.53;;;;;;;24.50;61.40;100259.72;2077841;83;21626;-71
2021/06/11 06:12:58;;;;;;;10.82;9.58;;;;;;;24.91;60.38;100249.77;2079201;84;21041;-70
2021/06/11 06:15:59;;;;;;;16.48;10.38;;;;;;;25.15;59.36;100254.36;2085423;84;21977;-68
2021/06/11 06:19:00;;;;;;;12.60;9.40;;;;;;;25.31;58.47;100250.65;2079634;84;21678;-68
2021/06/11 06:22:02;;;;;;;12.28;9.15;;;;;;;25.55;57.86;100248.91;2082001;84;21560;-70
2021/06/11 06:25:06;;;;;;;11.22;8.40;;;;;;;25.86;57.23;100261.61;2083784;84;20978;-69
2021/06/11 06:28:07;;;;;;;10.58;9.48;;;;;;;25.77;56.37;100257.73;2080568;84;21692;-70
2021/06/11 06:31:08;;;;;;;13.65;7.95;;;;;;;25.88;56.38;100257.28;2081536;84;20998;-69
2021/06/11 06:34:09;;;;;;;8.83;7.92;;;;;;;26.02;55.71;100250.27;2082099;84;21003;-68
2021/06/11 06:37:11;;;;;;;15.15;9.70;;;;;;;26.10;55.02;100255.20;2088773;84;20993;-68
2021/06/11 06:40:14;;;;;;;11.40;8.98;;;;;;;26.21;54.63;100249.23;2086873;84;21091;-69
2021/06/11 06:43:16;;;;;;;12.07;8.95;;;;;;;26.45;54.50;100256.92;2081794;84;21327;-68
2021/06/11 06:46:23;;;;;;;10.95;9.08;;;;;;;26.63;53.68;100256.43;2082277;84;21033;-69
2021/06/11 06:49:25;;;;;;;12.90;8.83;;;;;;;26.74;53.40;100257.27;2078469;84;21085;-68
2021/06/11 06:52:26;;;;;;;10.78;8.63;;;;;;;26.62;52.77;100261.61;2086937;84;21092;-69
2021/06/11 06:55:30;;;;;;;10.78;8.38;;;;;;;26.52;52.75;100256.14;2086487;84;21143;-70
2021/06/11 06:58:31;;;;;;;11.73;9.03;;;;;;;26.70;52.44;100251.55;2082844;84;21100;-69
2021/06/11 07:01:32;;;;;;;13.08;8.50;;;;;;;27.00;51.94;100257.56;2080227;84;21536;-68
2021/06/11 07:04:34;;;;;;;14.58;8.70;;;;;;;27.26;51.58;100254.30;2077972;84;21541;-68
2021/06/11 07:07:35;;;;;;;11.48;8.75;;;;;;;27.32;50.93;100252.94;2082605;84;20994;-69
2021/06/11 07:10:36;;;;;;;12.10;8.30;;;;;;;26.96;50.33;100251.56;2083289;84;21583;-68
2021/06/11 07:13:38;;;;;;;13.58;8.13;;;;;;;26.58;50.62;100257.27;2075851;84;21557;-68
2021/06/11 07:16:39;;;;;;;8.90;7.53;;;;;;;26.25;50.45;100267.21;2064124;84;21121;-68
2021/06/11 07:19:40;;;;;;;9.28;7.75;;;;;;;25.95;50.58;100268.71;2064618;84;21042;-67
2021/06/11 07:22:41;;;;;;;9.03;7.87;;;;;;;25.72;51.15;100265.86;2066384;84;20995;-67
2021/06/11 07:25:42;;;;;;;11.30;7.08;;;;;;;26.02;50.99;100265.77;2063670;84;21071;-69
2021/06/11 07:28:43;;;;;;;10.80;7.83;;;;;;;26.43;50.92;100259.09;2063933;84;21553;-68
2021/06/11 07:31:44;;;;;;;8.75;7.85;;;;;;;26.87;50.55;100257.29;2067330;84;21057;-69
2021/06/11 07:34:46;;;;;;;9.05;7.62;;;;;;;27.28;49.97;100249.93;2063383;84;21143;-69
2021/06/11 07:37:48;;;;;;;9.00;7.50;;;;;;;27.73;49.46;100255.01;2066396;84;21074;-67
2021/06/11 07:40:53;;;;;;;8.28;7.45;;;;;;;27.88;48.49;100258.28;2069110;84;21113;-69
2021/06/11 07:43:55;;;;;;;7.58;6.87;;;;;;;28.15;48.42;100260.05;2064965;84;21026;-68
2021/06/11 07:46:57;;;;;;;9.30;7.35;;;;;;;28.20;46.20;100246.95;2065807;84;21072;-69
2021/06/11 07:49:59;;;;;;;10.95;7.70;;;;;;;28.30;46.89;100244.73;2070317;84;20998;-68
2021/06/11 07:53:00;;;;;;;10.70;7.20;;;;;;;28.42;46.62;100249.84;2066136;84;21105;-68
2021/06/11 07:56:02;;;;;;;8.83;7.45;;;;;;;28.51;45.67;100240.78;2063916;84;21014;-69
2021/06/11 07:59:04;;;;;;;8.58;6.92;;;;;;;28.41;45.55;100240.84;2069260;84;21093;-68
2021/06/11 08:02:06;;;;;;;6.00;5.20;;;;;;;28.24;45.46;100240.37;2063150;84;21057;-70
2021/06/11 08:05:09;;;;;;;5.87;5.28;;;;;;;27.81;43.33;100244.12;2069840;84;21011;-69
2021/06/11 08:08:11;;;;;;;20.88;7.50;;;;;;;27.08;41.53;100239.03;2064052;84;21042;-68
2021/06/11 08:11:12;;;;;;;8.18;5.00;;;;;;;27.11;43.96;100243.93;2069336;84;21048;-68
2021/06/11 08:14:14;;;;;;;8.78;5.60;;;;;;;27.26;42.82;100242.05;2077103;84;21065;-69
2021/06/11 08:17:15;;;;;;;8.03;4.75;;;;;;;27.43;42.93;100243.66;2083835;84;21041;-70
2021/06/11 08:20:17;;;;;;;8.03;4.58;;;;;;;27.70;43.14;100248.75;2083141;84;21010;-70
2021/06/11 08:23:18;;;;;;;6.12;4.85;;;;;;;27.96;42.23;100247.33;2079172;84;21006;-68
2021/06/11 08:26:19;;;;;;;8.05;5.28;;;;;;;28.14;42.43;100250.25;2082132;84;21060;-68
2021/06/11 08:29:24;;;;;;;8.33;5.12;;;;;;;28.27;41.97;100249.35;2081430;84;21818;-70
2021/06/11 08:32:25;;;;;;;5.33;4.83;;;;;;;28.31;41.00;100247.16;2082654;84;21380;-69
2021/06/11 08:35:28;;;;;;;5.67;4.70;;;;;;;28.16;40.37;100237.16;2084693;84;21053;-68
2021/06/11 08:38:29;;;;;;;8.65;5.80;;;;;;;28.20;40.31;100241.48;2083238;84;21504;-68
2021/06/11 08:41:31;;;;;;;6.37;5.67;;;;;;;28.02;40.25;100240.77;2083788;84;22360;-68
2021/06/11 08:44:34;;;;;;;7.72;5.30;;;;;;;27.70;40.69;100244.11;2081581;84;20982;-67
2021/06/11 08:47:43;;;;;;;5.95;5.40;;;;;;;27.69;40.66;100244.41;2084996;84;21120;-68
2021/06/11 08:50:43;;;;;;;7.45;6.75;;;;;;;27.84;41.08;100240.28;2084218;84;21549;-71
2021/06/11 08:53:46;;;;;;;9.50;6.17;;;;;;;28.21;41.24;100242.30;2080797;84;22583;-68
2021/06/11 08:56:50;;;;;;;7.83;6.42;;;;;;;28.38;40.17;100238.13;2083063;84;21160;-67
2021/06/11 08:59:53;;;;;;;7.30;6.40;;;;;;;28.47;39.73;100236.20;2084238;84;21106;-69
2021/06/11 09:03:18;;;;;;;7.78;6.35;;;;;;;28.54;40.39;100237.48;2084481;84;21045;-69
2021/06/11 09:06:20;;;;;;;7.75;6.97;;;;;;;28.73;40.83;100241.73;2081395;84;21517;-69
2021/06/11 09:09:24;;;;;;;9.45;7.30;;;;;;;28.76;40.87;100231.59;2081970;84;21087;-69
2021/06/11 09:12:33;;;;;;;8.63;6.47;;;;;;;28.43;40.43;100235.11;2057545;84;21055;-70
2021/06/11 09:15:34;;;;;;;9.03;6.55;;;;;;;28.38;40.81;100228.57;2036810;85;21018;-70
2021/06/11 09:18:50;;;;;;;7.08;5.90;;;;;;;28.51;40.19;100236.69;2036345;85;21504;-72
2021/06/11 09:22:01;;;;;;;7.12;6.17;;;;;;;28.65;40.61;100234.14;2038814;85;21567;-72
2021/06/11 09:25:11;;;;;;;7.17;5.47;;;;;;;28.66;39.00;100229.49;2039620;84;21080;-73
2021/06/11 09:28:17;;;;;;;5.87;4.30;;;;;;;28.54;39.65;100225.76;2027797;85;22116;-73
2021/06/11 09:31:25;;;;;;;6.30;3.42;;;;;;;28.36;39.44;100234.05;2036779;85;21588;-73
2021/06/11 09:34:28;;;;;;;7.00;3.50;;;;;;;28.30;39.30;100237.91;2038712;85;21091;-75
2021/06/11 09:37:34;;;;;;;3.55;3.25;;;;;;;28.63;37.99;100232.80;2037643;85;21031;-73
2021/06/11 09:40:35;;;;;;;8.70;3.10;;;;;;;28.52;37.76;100234.77;2037217;85;20971;-73
2021/06/11 09:43:53;;;;;;;4.53;2.98;;;;;;;28.22;37.91;100236.58;2036379;85;21105;-75
2021/06/11 09:46:55;;;;;;;3.22;2.77;;;;;;;28.29;37.75;100234.89;2035827;85;21127;-74
2021/06/11 09:50:04;;;;;;;7.22;3.00;;;;;;;28.19;37.56;100232.23;2038647;85;21723;-72
2021/06/11 09:53:11;;;;;;;4.30;2.62;;;;;;;28.05;37.66;100236.13;2037485;85;21527;-73
2021/06/11 09:56:27;;;;;;;5.83;3.00;;;;;;;27.76;36.84;100244.09;2038214;85;21059;-73
2021/06/11 09:59:43;;;;;;;4.70;2.80;;;;;;;27.93;37.09;100235.06;2037018;85;21041;-78
2021/06/11 10:02:45;;;;;;;2.80;2.60;;;;;;;28.05;36.87;100229.30;2037668;85;21129;-78
2021/06/11 10:05:48;;;;;;;2.90;2.70;;;;;;;28.30;36.97;100225.08;2034292;85;21649;-74
2021/06/11 10:08:51;;;;;;;2.83;2.47;;;;;;;28.42;36.74;100227.48;2038528;85;21037;-73
2021/06/11 10:11:55;;;;;;;5.00;2.50;;;;;;;28.69;36.51;100220.73;2036902;85;21021;-75
2021/06/11 10:14:57;;;;;;;5.85;2.80;;;;;;;28.86;36.03;100218.95;2037636;85;21064;-73
2021/06/11 10:18:02;;;;;;;3.17;2.60;;;;;;;29.26;35.93;100218.62;2037352;85;21500;-75
2021/06/11 10:21:05;;;;;;;5.03;3.17;;;;;;;29.58;36.14;100212.27;2037059;85;21033;-75
2021/06/11 10:24:08;;;;;;;5.37;2.87;;;;;;;29.69;34.65;100206.98;2037772;85;21027;-75
2021/06/11 10:27:10;;;;;;;3.85;2.92;;;;;;;29.23;34.76;100205.55;2037616;85;21085;-74
2021/06/11 10:30:13;;;;;;;4.45;3.15;;;;;;;28.73;34.22;100209.52;2038123;85;21004;-74
2021/06/11 10:33:15;;;;;;;3.47;3.08;;;;;;;28.27;34.97;100205.18;2036840;85;21076;-73
2021/06/11 10:36:32;;;;;;;4.10;3.47;;;;;;;27.94;35.00;100207.53;2038348;85;21521;-74
2021/06/11 10:39:33;;;;;;;4.00;3.60;;;;;;;27.47;34.91;100209.31;2038769;85;21090;-73
2021/06/11 10:42:34;;;;;;;4.67;4.20;;;;;;;27.06;36.33;100201.20;2036189;85;21111;-72
2021/06/11 10:45:43;;;;;;;4.40;4.00;;;;;;;27.02;36.57;100196.83;2038466;85;22265;-74
2021/06/11 10:49:07;;;;;;;6.17;3.50;;;;;;;27.06;36.91;100197.12;2038281;85;21089;-74
2021/06/11 10:52:50;;;;;;;4.67;3.35;;;;;;;27.22;36.81;100192.47;2040241;85;21045;-76
2021/06/11 10:55:51;;;;;;;3.42;3.02;;;;;;;27.21;36.18;100196.30;2040656;85;21040;-77
2021/06/11 10:58:52;;;;;;;4.97;3.50;;;;;;;27.37;36.32;100193.82;2039271;85;21069;-74
2021/06/11 11:01:53;;;;;;;5.55;3.35;;;;;;;27.49;35.66;100201.68;2039855;85;21025;-75
2021/06/11 11:04:56;;;;;;;3.15;2.85;;;;;;;27.64;36.59;100211.16;2037534;85;21124;-75
2021/06/11 11:07:59;;;;;;;4.78;2.85;;;;;;;27.29;35.95;100211.28;2039724;85;21591;-75
2021/06/11 11:11:00;;;;;;;2.67;2.35;;;;;;;27.14;35.17;100206.62;2038216;85;21933;-74
2021/06/11 11:14:04;;;;;;;3.47;2.40;;;;;;;27.16;35.46;100207.20;2023037;84;21132;-73
2021/06/11 11:17:07;;;;;;;3.00;2.35;;;;;;;27.22;36.34;100209.63;2077008;84;21039;-73
2021/06/11 11:20:10;;;;;;;2.45;2.08;;;;;;;27.24;34.96;100206.09;2073022;84;21785;-74
2021/06/11 11:23:17;;;;;;;2.30;2.10;;;;;;;27.08;35.45;100205.00;2081453;84;21002;-73
2021/06/11 11:26:22;;;;;;;3.05;2.12;;;;;;;27.02;35.89;100204.19;2076971;84;21074;-75
2021/06/11 11:29:23;;;;;;;7.22;2.35;;;;;;;26.98;34.77;100205.84;2054395;84;21041;-74
2021/06/11 11:32:27;;;;;;;2.45;2.08;;;;;;;26.70;34.88;100199.84;2079079;84;20981;-72
2021/06/11 11:35:33;;;;;;;2.08;1.95;;;;;;;26.67;35.40;100200.95;2077411;84;21058;-75
2021/06/11 11:38:34;;;;;;;4.65;2.65;;;;;;;26.79;34.99;100200.92;2077260;84;21120;-75
2021/06/11 11:41:37;;;;;;;2.98;2.70;;;;;;;26.97;35.74;100190.02;2076228;84;21069;-75
2021/06/11 11:44:41;;;;;;;3.90;2.58;;;;;;;27.18;36.44;100192.77;2075540;84;21100;-76
2021/06/11 11:47:43;;;;;;;3.67;3.00;;;;;;;27.53;36.04;100191.03;2078876;84;21867;-74
2021/06/11 11:50:44;;;;;;;2.60;2.22;;;;;;;27.88;35.53;100180.58;2076697;84;21104;-75
2021/06/11 11:53:46;;;;;;;3.10;1.95;;;;;;;28.09;34.72;100186.17;2075984;84;20994;-74
2021/06/11 11:56:47;;;;;;;1.65;1.55;;;;;;;28.31;34.52;100183.59;2076390;84;21055;-74
2021/06/11 11:59:49;;;;;;;4.83;2.20;;;;;;;28.26;33.59;100179.53;2079650;84;21045;-75
2021/06/11 12:02:50;;;;;;;2.12;2.02;;;;;;;28.31;33.11;100175.41;2077131;84;21454;-78
2021/06/11 12:05:52;;;;;;;2.92;2.50;;;;;;;28.03;32.43;100180.48;2078284;84;21118;-73
2021/06/11 12:08:54;;;;;;;4.03;2.67;;;;;;;27.48;33.43;100179.08;2081331;84;21088;-72
2021/06/11 12:11:59;;;;;;;10.05;4.83;;;;;;;26.98;34.00;100190.86;2077743;84;21022;-77
2021/06/11 12:15:00;;;;;;;6.62;2.92;;;;;;;26.71;34.89;100182.42;2072071;84;21059;-73
2021/06/11 12:18:02;;;;;;;4.65;2.87;;;;;;;26.38;35.80;100190.00;2065286;84;21120;-76
2021/06/11 12:21:04;;;;;;;4.35;2.80;;;;;;;26.00;36.18;100179.58;2066801;84;21061;-72
2021/06/11 12:24:06;;;;;;;3.05;2.65;;;;;;;25.66;36.82;100185.41;2067842;84;21011;-74
2021/06/11 12:27:07;;;;;;;3.12;2.20;;;;;;;25.36;36.79;100186.88;2066975;84;21030;-77
2021/06/11 12:30:11;;;;;;;3.35;2.00;;;;;;;25.08;36.59;100185.84;2069190;84;21027;-73
2021/06/11 12:33:14;;;;;;;4.35;2.60;;;;;;;24.83;36.91;100192.20;2066492;84;21030;-75
2021/06/11 12:36:15;;;;;;;4.62;2.30;;;;;;;24.76;37.21;100192.13;2064097;84;21069;-74
2021/06/11 12:39:17;;;;;;;3.08;2.30;;;;;;;24.57;37.47;100183.55;2068638;84;21071;-74
2021/06/11 12:42:25;;;;;;;20.17;7.08;;;;;;;24.44;37.91;100184.81;2066349;84;21070;-73
2021/06/11 12:45:25;;;;;;;4.12;2.87;;;;;;;24.45;38.96;100174.77;2070607;84;21597;-72
2021/06/11 12:48:26;;;;;;;22.02;3.58;;;;;;;24.57;38.35;100174.06;2063184;84;21104;-72
2021/06/11 12:51:31;;;;;;;3.70;2.20;;;;;;;24.52;38.11;100182.14;2066161;84;21018;-74
2021/06/11 12:54:32;;;;;;;3.62;2.60;;;;;;;24.55;37.29;100181.11;2064314;84;21074;-73
2021/06/11 12:57:33;;;;;;;3.90;2.30;;;;;;;24.65;38.21;100180.91;2066908;84;21676;-73
2021/06/11 13:00:35;;;;;;;3.50;2.30;;;;;;;24.76;37.87;100185.35;2068006;85;21098;-73
2021/06/11 13:03:36;;;;;;;3.12;2.83;;;;;;;24.88;38.79;100188.69;2066634;84;21102;-72
2021/06/11 13:06:37;;;;;;;4.83;2.70;;;;;;;24.99;39.08;100189.59;2069245;84;21065;-73
2021/06/11 13:09:38;;;;;;;3.75;3.00;;;;;;;25.11;39.70;100177.19;2066798;84;21086;-72
2021/06/11 13:12:40;;;;;;;3.83;2.72;;;;;;;25.23;39.54;100190.07;2067875;84;21035;-73
2021/06/11 13:15:42;;;;;;;5.20;3.02;;;;;;;25.23;39.31;100196.31;2076092;84;21010;-73
2021/06/11 13:18:43;;;;;;;6.15;3.08;;;;;;;25.14;39.88;100184.80;2083655;84;22551;-72
2021/06/11 13:21:46;;;;;;;3.30;2.70;;;;;;;25.14;40.04;100190.23;2082513;84;21533;-73
2021/06/11 13:24:47;;;;;;;6.03;3.00;;;;;;;25.33;40.02;100187.94;2087404;84;20979;-72
2021/06/11 13:27:49;;;;;;;3.87;2.92;;;;;;;25.34;39.84;100189.05;2082013;84;21723;-76
2021/06/11 13:30:50;;;;;;;2.67;2.42;;;;;;;25.27;39.64;100184.38;2084954;84;21084;-74
2021/06/11 13:33:51;;;;;;;2.17;2.02;;;;;;;25.00;38.06;100185.27;2081189;84;21069;-73
2021/06/11 13:36:53;;;;;;;4.17;3.20;;;;;;;24.84;38.78;100199.80;2087525;84;21684;-73
2021/06/11 13:39:54;;;;;;;4.37;2.55;;;;;;;24.72;39.08;100184.21;2080126;84;21606;-78
2021/06/11 13:42:56;;;;;;;4.78;2.80;;;;;;;24.64;40.11;100190.11;2080268;84;21512;-77
2021/06/11 13:45:57;;;;;;;2.98;2.75;;;;;;;24.64;39.32;100192.82;2082045;84;21369;-72
2021/06/11 13:49:00;;;;;;;4.03;3.00;;;;;;;24.73;39.11;100189.39;2082760;84;21019;-74
2021/06/11 13:52:02;;;;;;;4.72;2.62;;;;;;;24.92;39.92;100186.27;2080980;84;21073;-72
2021/06/11 13:55:06;;;;;;;3.65;2.77;;;;;;;25.15;39.81;100193.27;2082265;84;21177;-72
2021/06/11 13:58:07;;;;;;;10.82;4.58;;;;;;;25.35;39.56;100192.03;2088525;84;21041;-74
2021/06/11 14:01:09;;;;;;;13.08;4.08;;;;;;;25.33;39.25;100179.25;2083287;84;21112;-72
2021/06/11 14:04:11;;;;;;;19.55;4.37;;;;;;;25.09;39.60;100186.96;2081922;84;21141;-75
2021/06/11 14:07:12;;;;;;;8.20;2.70;;;;;;;24.83;39.98;100189.48;2083461;84;21065;-73
2021/06/11 14:10:14;;;;;;;4.05;2.58;;;;;;;24.71;39.50;100185.30;2083012;84;21100;-73